sensor_id;sensor_type;location;lat;lon;timestamp;pressure;altitude;pressure_sealevel;temperature;humidity
71735;BME280;59577;52.122;5.406;2023-04-01T00:00:07;99123.25;;;9.20;100.00
71735;BME280;59577;52.122;5.406;2023-04-01T00:02:49;99128.66;;;9.20;100.00
71735;BME280;59577;52.122;5.406;2023-04-01T00:05:27;99133.25;;;9.20;100.00
71735;BME280;59577;52.122;5.406;2023-04-01T00:07:54;99132.88;;;9.21;100.00
71735;BME280;59577;52.122;5.406;2023-04-01T00:10:25;99132.09;;;9.21;100.00
71735;BME280;59577;52.122;5.406;2023-04-01T00:12:53;99138.28;;;9.21;100.00
71735;BME280;59577;52.122;5.406;2023-04-01T00:15:20;99139.44;;;9.20;100.00
71735;BME280;59577;52.122;5.406;2023-04-01T00:17:47;99137.50;;;9.21;100.00
71735;BME280;59577;52.122;5.406;2023-04-01T00:20:13;99142.53;;;9.22;100.00
71735;BME280;59577;52.122;5.406;2023-04-01T00:22:40;99143.66;;;9.21;100.00
71735;BME280;59577;52.122;5.406;2023-04-01T00:25:07;99145.59;;;9.21;100.00
71735;BME280;59577;52.122;5.406;2023-04-01T00:27:34;99142.13;;;9.20;100.00
71735;BME280;59577;52.122;5.406;2023-04-01T00:30:03;99148.31;;;9.21;100.00
71735;BME280;59577;52.122;5.406;2023-04-01T00:32:29;99147.13;;;9.22;100.00
71735;BME280;59577;52.122;5.406;2023-04-01T00:34:57;99145.22;;;9.22;100.00
71735;BME280;59577;52.122;5.406;2023-04-01T00:37:26;99146.00;;;9.23;100.00
71735;BME280;59577;52.122;5.406;2023-04-01T00:39:53;99148.31;;;9.21;100.00
71735;BME280;59577;52.122;5.406;2023-04-01T00:42:20;99141.72;;;9.22;100.00
71735;BME280;59577;52.122;5.406;2023-04-01T00:44:50;99151.38;;;9.23;100.00
71735;BME280;59577;52.122;5.406;2023-04-01T00:47:18;99153.31;;;9.22;100.00
71735;BME280;59577;52.122;5.406;2023-04-01T00:49:46;99144.84;;;9.24;100.00
71735;BME280;59577;52.122;5.406;2023-04-01T00:52:17;99146.38;;;9.25;100.00
71735;BME280;59577;52.122;5.406;2023-04-01T00:54:47;99150.63;;;9.26;100.00
71735;BME280;59577;52.122;5.406;2023-04-01T00:57:27;99150.63;;;9.22;100.00
71735;BME280;59577;52.122;5.406;2023-04-01T00:59:56;99145.59;;;9.21;100.00
71735;BME280;59577;52.122;5.406;2023-04-01T01:02:23;99152.94;;;9.20;100.00
71735;BME280;59577;52.122;5.406;2023-04-01T01:04:50;99154.09;;;9.19;100.00
71735;BME280;59577;52.122;5.406;2023-04-01T01:07:37;99160.63;;;9.18;100.00
71735;BME280;59577;52.122;5.406;2023-04-01T01:10:34;99161.41;;;9.15;100.00
71735;BME280;59577;52.122;5.406;2023-04-01T01:18:35;99163.69;;;9.13;100.00
71735;BME280;59577;52.122;5.406;2023-04-01T01:27:08;99164.88;;;9.09;100.00
71735;BME280;59577;52.122;5.406;2023-04-01T01:35:09;99164.06;;;9.04;100.00
71735;BME280;59577;52.122;5.406;2023-04-01T01:37:39;99169.84;;;9.03;100.00
71735;BME280;59577;52.122;5.406;2023-04-01T01:40:09;99173.72;;;9.02;100.00
71735;BME280;59577;52.122;5.406;2023-04-01T01:42:40;99168.31;;;8.98;100.00
71735;BME280;59577;52.122;5.406;2023-04-01T01:45:09;99174.84;;;8.97;100.00
71735;BME280;59577;52.122;5.406;2023-04-01T01:47:37;99181.41;;;8.96;100.00
71735;BME280;59577;52.122;5.406;2023-04-01T01:50:05;99171.75;;;8.95;100.00
71735;BME280;59577;52.122;5.406;2023-04-01T01:52:32;99172.53;;;8.96;100.00
71735;BME280;59577;52.122;5.406;2023-04-01T01:54:59;99173.69;;;8.95;100.00
71735;BME280;59577;52.122;5.406;2023-04-01T01:57:36;99173.28;;;8.93;100.00
71735;BME280;59577;52.122;5.406;2023-04-01T02:00:08;99177.91;;;8.92;100.00
71735;BME280;59577;52.122;5.406;2023-04-01T02:02:44;99177.53;;;8.90;100.00
71735;BME280;59577;52.122;5.406;2023-04-01T02:05:17;99176.75;;;8.90;100.00
71735;BME280;59577;52.122;5.406;2023-04-01T02:07:49;99179.44;;;8.86;100.00
71735;BME280;59577;52.122;5.406;2023-04-01T02:10:22;99172.13;;;8.83;100.00
71735;BME280;59577;52.122;5.406;2023-04-01T02:12:49;99182.16;;;8.82;100.00
71735;BME280;59577;52.122;5.406;2023-04-01T02:15:18;99176.34;;;8.80;100.00
71735;BME280;59577;52.122;5.406;2023-04-01T02:17:47;99189.81;;;8.80;100.00
71735;BME280;59577;52.122;5.406;2023-04-01T02:20:22;99187.13;;;8.80;100.00
71735;BME280;59577;52.122;5.406;2023-04-01T02:22:52;99192.91;;;8.79;100.00
71735;BME280;59577;52.122;5.406;2023-04-01T02:25:33;99188.28;;;8.76;100.00
71735;BME280;59577;52.122;5.406;2023-04-01T02:28:06;99187.09;;;8.77;100.00
71735;BME280;59577;52.122;5.406;2023-04-01T02:30:38;99186.72;;;8.75;100.00
71735;BME280;59577;52.122;5.406;2023-04-01T02:33:06;99191.34;;;8.74;100.00
71735;BME280;59577;52.122;5.406;2023-04-01T02:35:35;99190.97;;;8.72;100.00
71735;BME280;59577;52.122;5.406;2023-04-01T02:38:03;99192.09;;;8.71;100.00
71735;BME280;59577;52.122;5.406;2023-04-01T02:40:29;99189.78;;;8.70;100.00
71735;BME280;59577;52.122;5.406;2023-04-01T02:42:56;99188.25;;;8.69;100.00
71735;BME280;59577;52.122;5.406;2023-04-01T02:45:23;99195.94;;;8.70;100.00
71735;BME280;59577;52.122;5.406;2023-04-01T02:47:49;99193.66;;;8.69;100.00
71735;BME280;59577;52.122;5.406;2023-04-01T02:50:40;99196.72;;;8.67;100.00
71735;BME280;59577;52.122;5.406;2023-04-01T02:53:09;99205.56;;;8.68;100.00
71735;BME280;59577;52.122;5.406;2023-04-01T02:55:36;99203.66;;;8.68;100.00
71735;BME280;59577;52.122;5.406;2023-04-01T02:58:09;99206.34;;;8.68;100.00
71735;BME280;59577;52.122;5.406;2023-04-01T03:00:59;99205.19;;;8.69;100.00
71735;BME280;59577;52.122;5.406;2023-04-01T03:03:26;99206.72;;;8.70;100.00
71735;BME280;59577;52.122;5.406;2023-04-01T03:05:52;99209.06;;;8.72;100.00
71735;BME280;59577;52.122;5.406;2023-04-01T03:08:21;99208.28;;;8.71;100.00
71735;BME280;59577;52.122;5.406;2023-04-01T03:10:48;99211.75;;;8.72;100.00
71735;BME280;59577;52.122;5.406;2023-04-01T03:13:14;99209.06;;;8.72;100.00
71735;BME280;59577;52.122;5.406;2023-04-01T03:15:41;99217.16;;;8.72;100.00
71735;BME280;59577;52.122;5.406;2023-04-01T03:18:07;99221.00;;;8.71;100.00
71735;BME280;59577;52.122;5.406;2023-04-01T03:20:34;99221.38;;;8.69;100.00
71735;BME280;59577;52.122;5.406;2023-04-01T03:23:00;99220.63;;;8.69;100.00
71735;BME280;59577;52.122;5.406;2023-04-01T03:25:27;99225.22;;;8.68;100.00
71735;BME280;59577;52.122;5.406;2023-04-01T03:27:54;99231.78;;;8.67;100.00
71735;BME280;59577;52.122;5.406;2023-04-01T03:30:21;99235.25;;;8.68;100.00
71735;BME280;59577;52.122;5.406;2023-04-01T03:32:48;99231.41;;;8.69;100.00
71735;BME280;59577;52.122;5.406;2023-04-01T03:35:14;99233.31;;;8.68;100.00
71735;BME280;59577;52.122;5.406;2023-04-01T03:37:41;99244.09;;;8.68;100.00
71735;BME280;59577;52.122;5.406;2023-04-01T03:40:08;99255.28;;;8.70;100.00
71735;BME280;59577;52.122;5.406;2023-04-01T03:42:36;99245.66;;;8.69;100.00
71735;BME280;59577;52.122;5.406;2023-04-01T03:45:04;99244.50;;;8.70;100.00
71735;BME280;59577;52.122;5.406;2023-04-01T03:47:31;99245.66;;;8.69;100.00
71735;BME280;59577;52.122;5.406;2023-04-01T03:49:57;99250.69;;;8.71;100.00
71735;BME280;59577;52.122;5.406;2023-04-01T03:52:24;99256.84;;;8.71;100.00
71735;BME280;59577;52.122;5.406;2023-04-01T03:54:50;99249.50;;;8.72;100.00
71735;BME280;59577;52.122;5.406;2023-04-01T03:57:17;99258.41;;;8.72;100.00
71735;BME280;59577;52.122;5.406;2023-04-01T03:59:43;99261.50;;;8.74;100.00
71735;BME280;59577;52.122;5.406;2023-04-01T04:02:10;99266.91;;;8.78;100.00
71735;BME280;59577;52.122;5.406;2023-04-01T04:04:36;99264.59;;;8.80;100.00
71735;BME280;59577;52.122;5.406;2023-04-01T04:07:03;99264.97;;;8.82;100.00
71735;BME280;59577;52.122;5.406;2023-04-01T04:09:30;99270.78;;;8.84;100.00
71735;BME280;59577;52.122;5.406;2023-04-01T04:11:57;99269.63;;;8.85;100.00
71735;BME280;59577;52.122;5.406;2023-04-01T04:14:24;99277.75;;;8.89;100.00
71735;BME280;59577;52.122;5.406;2023-04-01T04:16:51;99276.59;;;8.90;100.00
71735;BME280;59577;52.122;5.406;2023-04-01T04:19:17;99280.44;;;8.89;100.00
71735;BME280;59577;52.122;5.406;2023-04-01T04:21:44;99283.13;;;8.89;100.00
71735;BME280;59577;52.122;5.406;2023-04-01T04:24:35;99296.63;;;8.89;100.00
71735;BME280;59577;52.122;5.406;2023-04-01T04:27:03;99299.31;;;8.89;100.00
71735;BME280;59577;52.122;5.406;2023-04-01T04:29:29;99298.19;;;8.90;100.00
71735;BME280;59577;52.122;5.406;2023-04-01T04:31:56;99299.31;;;8.89;100.00
71735;BME280;59577;52.122;5.406;2023-04-01T04:34:23;99304.72;;;8.89;100.00
71735;BME280;59577;52.122;5.406;2023-04-01T04:36:49;99307.03;;;8.90;100.00
71735;BME280;59577;52.122;5.406;2023-04-01T04:39:16;99307.03;;;8.90;100.00
71735;BME280;59577;52.122;5.406;2023-04-01T04:41:43;99304.72;;;8.89;100.00
71735;BME280;59577;52.122;5.406;2023-04-01T04:44:09;99317.84;;;8.90;100.00
71735;BME280;59577;52.122;5.406;2023-04-01T04:46:36;99322.47;;;8.90;100.00
71735;BME280;59577;52.122;5.406;2023-04-01T04:49:06;99318.59;;;8.91;100.00
71735;BME280;59577;52.122;5.406;2023-04-01T04:51:32;99330.19;;;8.91;100.00
71735;BME280;59577;52.122;5.406;2023-04-01T04:54:03;99341.38;;;8.93;100.00
71735;BME280;59577;52.122;5.406;2023-04-01T04:56:30;99340.22;;;8.94;100.00
71735;BME280;59577;52.122;5.406;2023-04-01T04:58:57;99346.41;;;8.95;100.00
71735;BME280;59577;52.122;5.406;2023-04-01T05:01:24;99351.78;;;8.95;100.00
71735;BME280;59577;52.122;5.406;2023-04-01T05:03:51;99349.50;;;8.97;100.00
71735;BME280;59577;52.122;5.406;2023-04-01T05:06:18;99360.31;;;9.04;100.00
71735;BME280;59577;52.122;5.406;2023-04-01T05:08:48;99362.66;;;9.09;100.00
71735;BME280;59577;52.122;5.406;2023-04-01T05:11:18;99366.91;;;9.10;100.00
71735;BME280;59577;52.122;5.406;2023-04-01T05:13:46;99375.81;;;9.14;100.00
71735;BME280;59577;52.122;5.406;2023-04-01T05:16:15;99375.06;;;9.17;100.00
71735;BME280;59577;52.122;5.406;2023-04-01T05:18:42;99378.53;;;9.21;100.00
71735;BME280;59577;52.122;5.406;2023-04-01T05:21:10;99382.41;;;9.20;100.00
71735;BME280;59577;52.122;5.406;2023-04-01T05:23:38;99383.91;;;9.18;100.00
71735;BME280;59577;52.122;5.406;2023-04-01T05:26:12;99388.19;;;9.19;100.00
71735;BME280;59577;52.122;5.406;2023-04-01T05:28:40;99393.94;;;9.17;100.00
71735;BME280;59577;52.122;5.406;2023-04-01T05:31:07;99395.09;;;9.16;100.00
71735;BME280;59577;52.122;5.406;2023-04-01T05:33:34;99400.84;;;9.15;100.00
71735;BME280;59577;52.122;5.406;2023-04-01T05:36:13;99405.50;;;9.14;100.00
71735;BME280;59577;52.122;5.406;2023-04-01T05:38:40;99405.50;;;9.14;100.00
71735;BME280;59577;52.122;5.406;2023-04-01T05:41:08;99410.13;;;9.14;100.00
71735;BME280;59577;52.122;5.406;2023-04-01T05:43:36;99423.63;;;9.14;100.00
71735;BME280;59577;52.122;5.406;2023-04-01T05:46:03;99423.63;;;9.14;100.00
71735;BME280;59577;52.122;5.406;2023-04-01T05:48:32;99426.31;;;9.14;100.00
71735;BME280;59577;52.122;5.406;2023-04-01T05:50:59;99427.84;;;9.15;100.00
71735;BME280;59577;52.122;5.406;2023-04-01T05:53:26;99434.06;;;9.15;100.00
71735;BME280;59577;52.122;5.406;2023-04-01T05:55:52;99428.66;;;9.15;100.00
71735;BME280;59577;52.122;5.406;2023-04-01T05:58:19;99433.66;;;9.17;100.00
71735;BME280;59577;52.122;5.406;2023-04-01T06:00:46;99437.91;;;9.18;100.00
71735;BME280;59577;52.122;5.406;2023-04-01T06:03:13;99438.66;;;9.18;100.00
71735;BME280;59577;52.122;5.406;2023-04-01T06:05:42;99441.38;;;9.18;100.00
71735;BME280;59577;52.122;5.406;2023-04-01T06:08:17;99450.66;;;9.21;100.00
71735;BME280;59577;52.122;5.406;2023-04-01T06:11:00;99450.28;;;9.22;100.00
71735;BME280;59577;52.122;5.406;2023-04-01T06:13:37;99455.34;;;9.28;100.00
71735;BME280;59577;52.122;5.406;2023-04-01T06:16:29;99464.22;;;9.32;100.00
71735;BME280;59577;52.122;5.406;2023-04-01T06:19:31;99463.47;;;9.35;100.00
71735;BME280;59577;52.122;5.406;2023-04-01T06:23:06;99471.97;;;9.37;100.00
71735;BME280;59577;52.122;5.406;2023-04-01T06:28:22;99478.53;;;9.39;100.00
71735;BME280;59577;52.122;5.406;2023-04-01T06:34:06;99478.94;;;9.38;100.00
71735;BME280;59577;52.122;5.406;2023-04-01T06:45:15;99509.03;;;9.40;100.00
71735;BME280;59577;52.122;5.406;2023-04-01T06:53:47;99522.94;;;9.42;100.00
71735;BME280;59577;52.122;5.406;2023-04-01T06:56:18;99531.03;;;9.42;100.00
71735;BME280;59577;52.122;5.406;2023-04-01T06:59:02;99532.59;;;9.43;100.00
71735;BME280;59577;52.122;5.406;2023-04-01T07:04:00;99533.34;;;9.44;100.00
71735;BME280;59577;52.122;5.406;2023-04-01T07:06:36;99548.38;;;9.45;100.00
71735;BME280;59577;52.122;5.406;2023-04-01T07:09:08;99545.69;;;9.45;100.00
71735;BME280;59577;52.122;5.406;2023-04-01T07:11:50;99543.41;;;9.47;100.00
71735;BME280;59577;52.122;5.406;2023-04-01T07:14:23;99551.91;;;9.49;100.00
71735;BME280;59577;52.122;5.406;2023-04-01T07:16:58;99555.78;;;9.55;100.00
71735;BME280;59577;52.122;5.406;2023-04-01T07:19:44;99560.84;;;9.60;100.00
71735;BME280;59577;52.122;5.406;2023-04-01T07:22:28;99569.41;;;9.66;100.00
71735;BME280;59577;52.122;5.406;2023-04-01T07:24:59;99566.34;;;9.71;100.00
71735;BME280;59577;52.122;5.406;2023-04-01T07:27:27;99575.59;;;9.73;100.00
71735;BME280;59577;52.122;5.406;2023-04-01T07:29:56;99578.31;;;9.77;100.00
71735;BME280;59577;52.122;5.406;2023-04-01T07:32:35;99584.91;;;9.79;100.00
71735;BME280;59577;52.122;5.406;2023-04-01T07:35:09;99595.72;;;9.79;100.00
71735;BME280;59577;52.122;5.406;2023-04-01T07:40:53;99591.06;;;9.76;100.00
71735;BME280;59577;52.122;5.406;2023-04-01T07:43:24;99596.88;;;9.78;100.00
71735;BME280;59577;52.122;5.406;2023-04-01T07:46:23;99598.81;;;9.78;100.00
71735;BME280;59577;52.122;5.406;2023-04-01T07:49:03;99606.13;;;9.77;100.00
71735;BME280;59577;52.122;5.406;2023-04-01T07:51:50;99613.47;;;9.77;100.00
71735;BME280;59577;52.122;5.406;2023-04-01T07:54:42;99616.53;;;9.75;100.00
71735;BME280;59577;52.122;5.406;2023-04-01T07:57:46;99633.13;;;9.74;100.00
71735;BME280;59577;52.122;5.406;2023-04-01T08:00:29;99633.13;;;9.74;100.00
71735;BME280;59577;52.122;5.406;2023-04-01T08:03:14;99637.75;;;9.73;100.00
71735;BME280;59577;52.122;5.406;2023-04-01T08:06:00;99637.75;;;9.73;100.00
71735;BME280;59577;52.122;5.406;2023-04-01T08:11:41;99645.50;;;9.75;100.00
71735;BME280;59577;52.122;5.406;2023-04-01T08:14:26;99654.75;;;9.77;100.00
71735;BME280;59577;52.122;5.406;2023-04-01T08:17:05;99650.91;;;9.78;100.00
71735;BME280;59577;52.122;5.406;2023-04-01T08:22:29;99663.72;;;9.89;100.00
71735;BME280;59577;52.122;5.406;2023-04-01T08:24:59;99668.78;;;9.94;100.00
71735;BME280;59577;52.122;5.406;2023-04-01T08:27:44;99673.06;;;9.98;100.00
71735;BME280;59577;52.122;5.406;2023-04-01T08:35:48;99687.41;;;10.06;100.00
71735;BME280;59577;52.122;5.406;2023-04-01T08:40:58;99698.59;;;10.05;100.00
71735;BME280;59577;52.122;5.406;2023-04-01T08:43:34;99692.41;;;10.04;100.00
71735;BME280;59577;52.122;5.406;2023-04-01T08:49:32;99712.47;;;10.03;100.00
71735;BME280;59577;52.122;5.406;2023-04-01T08:52:29;99717.50;;;10.05;100.00
71735;BME280;59577;52.122;5.406;2023-04-01T08:58:16;99720.63;;;10.07;100.00
71735;BME280;59577;52.122;5.406;2023-04-01T09:11:58;99740.81;;;10.24;100.00
71735;BME280;59577;52.122;5.406;2023-04-01T09:14:56;99733.47;;;10.24;100.00
71735;BME280;59577;52.122;5.406;2023-04-01T09:17:53;99741.22;;;10.26;100.00
71735;BME280;59577;52.122;5.406;2023-04-01T09:20:44;99744.75;;;10.30;100.00
71735;BME280;59577;52.122;5.406;2023-04-01T09:23:26;99750.59;;;10.35;100.00
71735;BME280;59577;52.122;5.406;2023-04-01T09:31:49;99756.88;;;10.50;100.00
71735;BME280;59577;52.122;5.406;2023-04-01T09:37:47;99769.38;;;10.69;100.00
71735;BME280;59577;52.122;5.406;2023-04-01T09:40:18;99762.81;;;10.78;100.00
71735;BME280;59577;52.122;5.406;2023-04-01T09:43:27;99779.06;;;10.81;100.00
71735;BME280;59577;52.122;5.406;2023-04-01T09:52:44;99786.25;;;11.25;100.00
71735;BME280;59577;52.122;5.406;2023-04-01T09:55:42;99777.38;;;11.36;100.00
71735;BME280;59577;52.122;5.406;2023-04-01T09:58:33;99788.59;;;11.34;100.00
71735;BME280;59577;52.122;5.406;2023-04-01T10:21:29;99800.38;;;12.39;100.00
71735;BME280;59577;52.122;5.406;2023-04-01T10:26:53;99810.03;;;12.33;100.00
71735;BME280;59577;52.122;5.406;2023-04-01T10:34:56;99818.19;;;12.33;100.00
71735;BME280;59577;52.122;5.406;2023-04-01T10:40:31;99825.16;;;12.27;100.00
71735;BME280;59577;52.122;5.406;2023-04-01T10:46:21;99827.50;;;12.21;100.00
71735;BME280;59577;52.122;5.406;2023-04-01T10:52:17;99828.28;;;12.29;100.00
71735;BME280;59577;52.122;5.406;2023-04-01T11:01:44;99838.31;;;12.82;100.00
71735;BME280;59577;52.122;5.406;2023-04-01T11:04:26;99848.75;;;12.98;100.00
71735;BME280;59577;52.122;5.406;2023-04-01T11:16:18;99859.28;;;12.53;100.00
71735;BME280;59577;52.122;5.406;2023-04-01T11:32:54;99883.28;;;12.08;100.00
71735;BME280;59577;52.122;5.406;2023-04-01T11:35:39;99882.88;;;12.06;100.00
71735;BME280;59577;52.122;5.406;2023-04-01T11:41:15;99890.25;;;12.12;100.00
71735;BME280;59577;52.122;5.406;2023-04-01T11:52:21;99909.56;;;11.89;100.00
71735;BME280;59577;52.122;5.406;2023-04-01T11:55:23;99914.59;;;11.83;100.00
71735;BME280;59577;52.122;5.406;2023-04-01T12:05:49;99930.81;;;11.76;100.00
71735;BME280;59577;52.122;5.406;2023-04-01T12:13:59;99946.34;;;11.83;100.00
71735;BME280;59577;52.122;5.406;2023-04-01T12:19:53;99951.00;;;11.90;100.00
71735;BME280;59577;52.122;5.406;2023-04-01T12:22:38;99942.47;;;11.88;100.00
71735;BME280;59577;52.122;5.406;2023-04-01T12:28:14;99958.72;;;11.73;100.00
71735;BME280;59577;52.122;5.406;2023-04-01T12:31:05;99961.38;;;11.70;100.00
71735;BME280;59577;52.122;5.406;2023-04-01T12:36:40;99970.28;;;11.66;100.00
71735;BME280;59577;52.122;5.406;2023-04-01T12:42:17;99981.50;;;11.65;100.00
71735;BME280;59577;52.122;5.406;2023-04-01T12:50:31;99983.16;;;11.88;100.00
71735;BME280;59577;52.122;5.406;2023-04-01T12:53:35;99982.47;;;11.98;100.00
71735;BME280;59577;52.122;5.406;2023-04-01T12:56:03;99982.09;;;12.07;100.00
71735;BME280;59577;52.122;5.406;2023-04-01T12:58:51;99982.88;;;12.14;100.00
71735;BME280;59577;52.122;5.406;2023-04-01T13:01:27;99986.78;;;12.24;100.00
71735;BME280;59577;52.122;5.406;2023-04-01T13:20:02;100017.72;;;11.98;100.00
71735;BME280;59577;52.122;5.406;2023-04-01T13:25:06;100021.88;;;11.84;100.00
71735;BME280;59577;52.122;5.406;2023-04-01T13:27:41;100038.13;;;11.77;100.00
71735;BME280;59577;52.122;5.406;2023-04-01T13:30:34;100033.06;;;11.72;100.00
71735;BME280;59577;52.122;5.406;2023-04-01T13:36:03;100039.19;;;11.62;100.00
71735;BME280;59577;52.122;5.406;2023-04-01T13:39:14;100041.09;;;11.58;100.00
71735;BME280;59577;52.122;5.406;2023-04-01T13:42:05;100048.03;;;11.55;100.00
71735;BME280;59577;52.122;5.406;2023-04-01T13:44:38;100045.72;;;11.57;100.00
71735;BME280;59577;52.122;5.406;2023-04-01T13:47:12;100051.56;;;11.59;100.00
71735;BME280;59577;52.122;5.406;2023-04-01T13:50:02;100058.88;;;11.55;100.00
71735;BME280;59577;52.122;5.406;2023-04-01T13:52:44;100057.69;;;11.49;100.00
71735;BME280;59577;52.122;5.406;2023-04-01T13:55:22;100070.44;;;11.45;100.00
71735;BME280;59577;52.122;5.406;2023-04-01T14:01:03;100068.88;;;11.44;100.00
71735;BME280;59577;52.122;5.406;2023-04-01T14:04:03;100066.56;;;11.42;100.00
71735;BME280;59577;52.122;5.406;2023-04-01T14:06:38;100068.88;;;11.44;100.00
71735;BME280;59577;52.122;5.406;2023-04-01T14:11:56;100078.91;;;11.40;100.00
71735;BME280;59577;52.122;5.406;2023-04-01T14:26:59;100114.88;;;10.92;100.00
71735;BME280;59577;52.122;5.406;2023-04-01T14:31:58;100125.22;;;10.86;100.00
71735;BME280;59577;52.122;5.406;2023-04-01T14:37:15;100124.28;;;10.68;100.00
71735;BME280;59577;52.122;5.406;2023-04-01T14:42:39;100145.38;;;10.55;100.00
71735;BME280;59577;52.122;5.406;2023-04-01T14:45:44;100152.28;;;10.49;100.00
71735;BME280;59577;52.122;5.406;2023-04-01T14:48:23;100149.94;;;10.47;100.00
71735;BME280;59577;52.122;5.406;2023-04-01T14:50:57;100162.56;;;10.40;100.00
71735;BME280;59577;52.122;5.406;2023-04-01T14:53:31;100164.50;;;10.39;100.00
71735;BME280;59577;52.122;5.406;2023-04-01T14:56:01;100164.50;;;10.39;100.00
71735;BME280;59577;52.122;5.406;2023-04-01T14:58:45;100167.25;;;10.43;100.00
71735;BME280;59577;52.122;5.406;2023-04-01T15:06:42;100186.25;;;10.46;100.00
71735;BME280;59577;52.122;5.406;2023-04-01T15:12:30;100194.78;;;10.48;100.00
71735;BME280;59577;52.122;5.406;2023-04-01T15:18:08;100206.75;;;10.47;100.00
71735;BME280;59577;52.122;5.406;2023-04-01T15:21:48;100218.00;;;10.49;100.00
71735;BME280;59577;52.122;5.406;2023-04-01T15:23:56;100218.41;;;10.51;100.00
71735;BME280;59577;52.122;5.406;2023-04-01T15:31:55;100237.06;;;10.60;100.00
71735;BME280;59577;52.122;5.406;2023-04-01T15:37:45;100245.56;;;10.59;100.00
71735;BME280;59577;52.122;5.406;2023-04-01T15:40:30;100244.00;;;10.58;100.00
71735;BME280;59577;52.122;5.406;2023-04-01T15:48:33;100264.03;;;10.53;100.00
71735;BME280;59577;52.122;5.406;2023-04-01T15:54:17;100273.56;;;10.43;100.00
71735;BME280;59577;52.122;5.406;2023-04-01T16:03:20;100293.13;;;10.33;100.00
71735;BME280;59577;52.122;5.406;2023-04-01T16:16:28;100324.91;;;10.16;100.00
71735;BME280;59577;52.122;5.406;2023-04-01T16:19:19;100334.84;;;10.09;100.00
71735;BME280;59577;52.122;5.406;2023-04-01T16:22:06;100341.19;;;9.97;100.00
71735;BME280;59577;52.122;5.406;2023-04-01T16:25:14;100343.38;;;9.91;100.00
71735;BME280;59577;52.122;5.406;2023-04-01T16:27:46;100347.66;;;9.92;100.00
71735;BME280;59577;52.122;5.406;2023-04-01T16:33:28;100359.13;;;9.86;100.00
71735;BME280;59577;52.122;5.406;2023-04-01T16:36:05;100359.84;;;9.83;100.00
71735;BME280;59577;52.122;5.406;2023-04-01T16:38:46;100372.09;;;9.76;100.00
71735;BME280;59577;52.122;5.406;2023-04-01T16:41:19;100375.00;;;9.68;100.00
71735;BME280;59577;52.122;5.406;2023-04-01T16:43:52;100381.53;;;9.67;100.00
71735;BME280;59577;52.122;5.406;2023-04-01T16:46:34;100386.88;;;9.63;100.00
71735;BME280;59577;52.122;5.406;2023-04-01T16:51:46;100403.03;;;9.59;100.00
71735;BME280;59577;52.122;5.406;2023-04-01T16:57:19;100417.16;;;9.53;100.00
71735;BME280;59577;52.122;5.406;2023-04-01T16:59:55;100425.97;;;9.50;100.00
71735;BME280;59577;52.122;5.406;2023-04-01T17:02:33;100426.34;;;9.48;100.00
71735;BME280;59577;52.122;5.406;2023-04-01T17:05:08;100440.63;;;9.49;100.00
71735;BME280;59577;52.122;5.406;2023-04-01T17:10:42;100442.03;;;9.43;100.00
71735;BME280;59577;52.122;5.406;2023-04-01T17:13:27;100456.16;;;9.36;100.00
71735;BME280;59577;52.122;5.406;2023-04-01T17:16:46;100461.41;;;9.29;100.00
71735;BME280;59577;52.122;5.406;2023-04-01T17:24:29;100488.34;;;9.25;100.00
71735;BME280;59577;52.122;5.406;2023-04-01T17:27:26;100487.41;;;9.17;100.00
71735;BME280;59577;52.122;5.406;2023-04-01T17:30:03;100496.97;;;9.15;100.00
71735;BME280;59577;52.122;5.406;2023-04-01T17:35:33;100510.03;;;9.13;100.00
71735;BME280;59577;52.122;5.406;2023-04-01T17:41:00;100516.06;;;9.06;100.00
71735;BME280;59577;52.122;5.406;2023-04-01T17:43:50;100526.50;;;9.08;100.00
71735;BME280;59577;52.122;5.406;2023-04-01T17:46:31;100533.75;;;9.03;100.00
71735;BME280;59577;52.122;5.406;2023-04-01T17:49:27;100543.66;;;8.99;100.00
71735;BME280;59577;52.122;5.406;2023-04-01T17:54:41;100547.75;;;8.93;100.00
71735;BME280;59577;52.122;5.406;2023-04-01T17:57:34;100558.81;;;8.88;100.00
71735;BME280;59577;52.122;5.406;2023-04-01T18:03:03;100576.47;;;8.85;100.00
71735;BME280;59577;52.122;5.406;2023-04-01T18:05:44;100572.91;;;8.81;100.00
71735;BME280;59577;52.122;5.406;2023-04-01T18:08:16;100586.31;;;8.78;100.00
71735;BME280;59577;52.122;5.406;2023-04-01T18:17:16;100605.63;;;8.80;100.00
71735;BME280;59577;52.122;5.406;2023-04-01T18:20:11;100609.34;;;8.75;100.00
71735;BME280;59577;52.122;5.406;2023-04-01T18:25:34;100631.84;;;8.79;100.00
71735;BME280;59577;52.122;5.406;2023-04-01T18:30:39;100640.00;;;8.67;100.00
71735;BME280;59577;52.122;5.406;2023-04-01T18:33:34;100654.25;;;8.68;100.00
71735;BME280;59577;52.122;5.406;2023-04-01T18:39:00;100662.84;;;8.57;100.00
71735;BME280;59577;52.122;5.406;2023-04-01T18:41:35;100667.34;;;8.53;100.00
71735;BME280;59577;52.122;5.406;2023-04-01T18:44:36;100673.75;;;8.49;100.00
71735;BME280;59577;52.122;5.406;2023-04-01T18:47:18;100673.44;;;8.50;100.00
71735;BME280;59577;52.122;5.406;2023-04-01T18:50:18;100691.28;;;8.42;100.00
71735;BME280;59577;52.122;5.406;2023-04-01T18:55:40;100698.91;;;8.40;100.00
71735;BME280;59577;52.122;5.406;2023-04-01T19:01:16;100716.56;;;8.38;100.00
71735;BME280;59577;52.122;5.406;2023-04-01T19:04:16;100723.88;;;8.37;100.00
71735;BME280;59577;52.122;5.406;2023-04-01T19:06:54;100728.91;;;8.39;100.00
71735;BME280;59577;52.122;5.406;2023-04-01T19:14:47;100742.75;;;8.37;100.00
71735;BME280;59577;52.122;5.406;2023-04-01T19:17:32;100750.63;;;8.30;100.00
71735;BME280;59577;52.122;5.406;2023-04-01T19:29:36;100781.41;;;8.41;100.00
71735;BME280;59577;52.122;5.406;2023-04-01T19:32:14;100790.94;;;8.39;100.00
71735;BME280;59577;52.122;5.406;2023-04-01T19:37:45;100806.34;;;8.26;100.00
71735;BME280;59577;52.122;5.406;2023-04-01T19:45:55;100815.66;;;8.16;100.00